sensor_id;sensor_type;location;lat;lon;timestamp;pressure;altitude;pressure_sealevel;temperature
68342;BMP280;55668;52.310;21.066;2023-04-10T00:24:55;101600.0;;;8.3
68342;BMP280;55668;52.310;21.066;2023-04-10T00:40:37;101600.0;;;8.2
68342;BMP280;55668;52.310;21.066;2023-04-10T00:55:55;101600.0;;;8.1
68342;BMP280;55668;52.310;21.066;2023-04-10T01:10:32;101610.0;;;7.9
68342;BMP280;55668;52.310;21.066;2023-04-10T01:26:34;101610.0;;;7.7
68342;BMP280;55668;52.310;21.066;2023-04-10T01:57:07;101600.0;;;7.5
68342;BMP280;55668;52.310;21.066;2023-04-10T02:12:13;101610.0;;;7.3
68342;BMP280;55668;52.310;21.066;2023-04-10T02:43:22;101610.0;;;7.1
68342;BMP280;55668;52.310;21.066;2023-04-10T02:59:27;101610.0;;;7.0
68342;BMP280;55668;52.310;21.066;2023-04-10T03:31:42;101610.0;;;6.9
68342;BMP280;55668;52.310;21.066;2023-04-10T03:44:40;101600.0;;;6.7
68342;BMP280;55668;52.310;21.066;2023-04-10T04:14:58;101620.0;;;6.6
68342;BMP280;55668;52.310;21.066;2023-04-10T04:30:53;101640.0;;;6.4
68342;BMP280;55668;52.310;21.066;2023-04-10T04:45:56;101650.0;;;6.8
68342;BMP280;55668;52.310;21.066;2023-04-10T05:01:59;101650.0;;;7.0
68342;BMP280;55668;52.310;21.066;2023-04-10T05:18:00;101660.0;;;7.3
68342;BMP280;55668;52.310;21.066;2023-04-10T05:31:55;101670.0;;;7.4
68342;BMP280;55668;52.310;21.066;2023-04-10T05:47:39;101680.0;;;8.3
68342;BMP280;55668;52.310;21.066;2023-04-10T06:03:27;101690.0;;;8.8
68342;BMP280;55668;52.310;21.066;2023-04-10T06:19:43;101700.0;;;9.5
68342;BMP280;55668;52.310;21.066;2023-04-10T06:48:16;101700.0;;;13.6
68342;BMP280;55668;52.310;21.066;2023-04-10T07:05:27;101710.0;;;13.7
68342;BMP280;55668;52.310;21.066;2023-04-10T07:52:23;101730.0;;;14.4
68342;BMP280;55668;52.310;21.066;2023-04-10T08:06:55;101720.0;;;14.8
68342;BMP280;55668;52.310;21.066;2023-04-10T08:25:07;101710.0;;;14.2
68342;BMP280;55668;52.310;21.066;2023-04-10T08:36:06;101690.0;;;13.6
68342;BMP280;55668;52.310;21.066;2023-04-10T08:51:53;101690.0;;;13.9
68342;BMP280;55668;52.310;21.066;2023-04-10T09:09:24;101680.0;;;14.1
68342;BMP280;55668;52.310;21.066;2023-04-10T09:26:54;101660.0;;;14.0
68342;BMP280;55668;52.310;21.066;2023-04-10T09:39:43;101640.0;;;14.3
68342;BMP280;55668;52.310;21.066;2023-04-10T09:52:38;101640.0;;;14.1
68342;BMP280;55668;52.310;21.066;2023-04-10T10:23:11;101610.0;;;14.6
68342;BMP280;55668;52.310;21.066;2023-04-10T10:43:45;101590.0;;;15.0
68342;BMP280;55668;52.310;21.066;2023-04-10T10:56:51;101580.0;;;15.3
68342;BMP280;55668;52.310;21.066;2023-04-10T11:11:24;101570.0;;;14.9
68342;BMP280;55668;52.310;21.066;2023-04-10T11:44:02;101530.0;;;15.3
68342;BMP280;55668;52.310;21.066;2023-04-10T12:42:13;101450.0;;;15.6
68342;BMP280;55668;52.310;21.066;2023-04-10T12:57:56;101430.0;;;15.9
68342;BMP280;55668;52.310;21.066;2023-04-10T13:13:10;101420.0;;;15.7
68342;BMP280;55668;52.310;21.066;2023-04-10T13:28:28;101400.0;;;16.2
68342;BMP280;55668;52.310;21.066;2023-04-10T13:43:32;101400.0;;;16.3
68342;BMP280;55668;52.310;21.066;2023-04-10T14:03:18;101380.0;;;15.9
68342;BMP280;55668;52.310;21.066;2023-04-10T14:32:41;101370.0;;;15.5
68342;BMP280;55668;52.310;21.066;2023-04-10T14:49:37;101360.0;;;14.9
68342;BMP280;55668;52.310;21.066;2023-04-10T15:02:59;101350.0;;;14.4
68342;BMP280;55668;52.310;21.066;2023-04-10T15:15:23;101340.0;;;14.2
68342;BMP280;55668;52.310;21.066;2023-04-10T15:30:37;101320.0;;;14.3
68342;BMP280;55668;52.310;21.066;2023-04-10T15:45:50;101300.0;;;14.2
68342;BMP280;55668;52.310;21.066;2023-04-10T16:01:49;101310.0;;;14.1
68342;BMP280;55668;52.310;21.066;2023-04-10T16:32:57;101290.0;;;13.7
68342;BMP280;55668;52.310;21.066;2023-04-10T16:47:25;101280.0;;;13.6
68342;BMP280;55668;52.310;21.066;2023-04-10T17:02:41;101290.0;;;13.3
68342;BMP280;55668;52.310;21.066;2023-04-10T17:18:12;101280.0;;;13.0
68342;BMP280;55668;52.310;21.066;2023-04-10T17:33:37;101280.0;;;12.8
68342;BMP280;55668;52.310;21.066;2023-04-10T17:50:22;101280.0;;;12.5
68342;BMP280;55668;52.310;21.066;2023-04-10T18:06:42;101280.0;;;12.2
68342;BMP280;55668;52.310;21.066;2023-04-10T18:22:17;101280.0;;;11.9
68342;BMP280;55668;52.310;21.066;2023-04-10T18:34:42;101270.0;;;11.8
68342;BMP280;55668;52.310;21.066;2023-04-10T18:51:17;101270.0;;;11.7
68342;BMP280;55668;52.310;21.066;2023-04-10T19:06:59;101260.0;;;11.5
68342;BMP280;55668;52.310;21.066;2023-04-10T19:23:10;101260.0;;;11.2
68342;BMP280;55668;52.310;21.066;2023-04-10T20:07:05;101230.0;;;10.8
68342;BMP280;55668;52.310;21.066;2023-04-10T20:39:53;101200.0;;;10.6
68342;BMP280;55668;52.310;21.066;2023-04-10T20:55:21;101200.0;;;10.3
68342;BMP280;55668;52.310;21.066;2023-04-10T21:08:40;101180.0;;;10.1
68342;BMP280;55668;52.310;21.066;2023-04-10T21:24:50;101180.0;;;9.9
68342;BMP280;55668;52.310;21.066;2023-04-10T21:39:27;101180.0;;;9.7
68342;BMP280;55668;52.310;21.066;2023-04-10T21:56:46;101160.0;;;9.5
68342;BMP280;55668;52.310;21.066;2023-04-10T22:10:23;101150.0;;;9.4
68342;BMP280;55668;52.310;21.066;2023-04-10T22:27:09;101140.0;;;9.3
68342;BMP280;55668;52.310;21.066;2023-04-10T22:40:19;101120.0;;;9.1
68342;BMP280;55668;52.310;21.066;2023-04-10T22:58:32;101110.0;;;8.9
68342;BMP280;55668;52.310;21.066;2023-04-10T23:28:46;101090.0;;;8.7
68342;BMP280;55668;52.310;21.066;2023-04-10T23:44:49;101050.0;;;8.5
